createdAt,value
2022-11-23T00:00:06.712Z,1096.5
2022-11-23T00:01:50.304Z,1097.7
2022-11-23T00:03:34.086Z,1095.5
2022-11-23T00:05:17.739Z,1107.4
2022-11-23T00:07:01.421Z,1127.9
2022-11-23T00:08:45.124Z,1117.5
2022-11-23T00:10:28.878Z,1136.4
2022-11-23T00:12:12.596Z,1144.6
2022-11-23T00:13:56.268Z,1143.5
2022-11-23T00:15:39.959Z,1139.1
2022-11-23T00:17:23.661Z,1132.3
2022-11-23T00:19:07.331Z,1125.2
2022-11-23T00:20:51.032Z,1118.7
2022-11-23T00:22:34.749Z,1118
2022-11-23T00:24:18.448Z,1122.3
2022-11-23T00:26:02.197Z,1121.6
2022-11-23T00:27:45.900Z,1117.9
2022-11-23T00:29:29.594Z,1111.8
2022-11-23T00:31:13.257Z,1111.8
2022-11-23T00:32:57.013Z,1105.9
2022-11-23T00:34:40.644Z,1105.3
2022-11-23T00:36:24.353Z,1103.7
2022-11-23T00:38:08.100Z,1105.7
2022-11-23T00:39:51.879Z,1105.6
2022-11-23T00:41:35.468Z,1114.9
2022-11-23T00:43:19.181Z,1164.9
2022-11-23T00:45:02.883Z,1165
2022-11-23T00:46:46.624Z,1139.5
2022-11-23T00:48:30.277Z,1134
2022-11-23T00:50:13.986Z,1135.4
2022-11-23T00:51:57.742Z,1132.8
2022-11-23T00:53:41.416Z,1130.3
2022-11-23T00:55:25.131Z,1126.8
2022-11-23T00:57:08.875Z,1124.6
2022-11-23T00:58:52.496Z,1121.7
2022-11-23T01:00:36.194Z,1116.1
2022-11-23T01:02:19.898Z,1116.1
2022-11-23T01:04:03.635Z,1114.7
2022-11-23T01:05:47.305Z,1113.5
2022-11-23T01:07:31.012Z,1108.4
2022-11-23T01:09:14.813Z,1106.9
2022-11-23T01:10:58.414Z,1108.3
2022-11-23T01:12:42.110Z,1101.7
2022-11-23T01:14:25.865Z,1097.4
2022-11-23T01:16:09.548Z,1095.4
2022-11-23T01:17:53.264Z,1095.9
2022-11-23T01:19:37.021Z,1094.6
2022-11-23T01:21:20.623Z,1090.1
2022-11-23T01:23:04.333Z,1091.5
2022-11-23T01:24:48.040Z,1088.2
2022-11-23T01:26:31.737Z,1087.8
2022-11-23T01:28:15.429Z,1085.2
2022-11-23T01:29:59.196Z,1082.2
2022-11-23T01:31:42.844Z,1078.3
2022-11-23T01:33:26.564Z,1077
2022-11-23T01:35:10.267Z,1080
2022-11-23T01:36:54.076Z,1079.1
2022-11-23T01:38:37.707Z,1076.3
2022-11-23T01:40:21.391Z,1076
2022-11-23T01:42:05.099Z,1074.3
2022-11-23T01:43:48.820Z,1074.6
2022-11-23T01:45:32.467Z,1077.4
2022-11-23T01:47:16.199Z,1073.6
2022-11-23T01:48:59.874Z,1068.8
2022-11-23T01:50:43.695Z,1067.5
2022-11-23T01:52:27.432Z,1069
2022-11-23T01:54:11.095Z,1067.4
2022-11-23T01:55:54.729Z,1064.6
2022-11-23T01:57:38.520Z,1062.6
2022-11-23T01:59:22.220Z,1058.7
2022-11-23T02:01:05.874Z,1055.7
2022-11-23T02:02:49.490Z,1056
2022-11-23T02:04:33.372Z,1050.8
2022-11-23T02:06:17.030Z,1051.7
2022-11-23T02:08:00.771Z,1050.7
2022-11-23T02:09:44.323Z,1048.3
2022-11-23T02:11:28.046Z,1043.5
2022-11-23T02:13:11.824Z,1043.2
2022-11-23T02:14:55.526Z,1046.1
2022-11-23T02:16:39.103Z,1050.8
2022-11-23T02:18:22.936Z,1043.2
2022-11-23T02:20:06.556Z,1041.3
2022-11-23T02:21:50.222Z,1043.7
2022-11-23T02:23:33.917Z,1044.7
2022-11-23T02:25:17.799Z,1039.6
2022-11-23T02:27:01.399Z,1036.6
2022-11-23T02:28:45.152Z,1040.1
2022-11-23T02:30:28.847Z,1035.8
2022-11-23T02:32:12.442Z,1035.4
2022-11-23T02:33:56.216Z,1030.3
2022-11-23T02:35:39.840Z,1027.7
2022-11-23T02:37:23.586Z,1023.9
2022-11-23T02:39:07.326Z,1022.7
2022-11-23T02:40:50.949Z,1019
2022-11-23T02:42:34.739Z,1019.7
2022-11-23T02:46:02.209Z,1018.3
2022-11-23T02:47:45.821Z,1017.8
2022-11-23T02:49:29.464Z,1021.7
2022-11-23T02:51:13.289Z,1020.5
2022-11-23T02:52:57.065Z,1017.4
2022-11-23T02:54:40.664Z,1012.9
2022-11-23T02:56:24.424Z,1010.7
2022-11-23T02:58:08.053Z,1011.4
2022-11-23T02:59:51.671Z,1015.3
2022-11-23T03:01:35.537Z,1016
2022-11-23T03:03:19.249Z,1017
2022-11-23T03:05:02.940Z,1014.5
2022-11-23T03:06:46.493Z,1014.3
2022-11-23T03:08:30.268Z,1014.7
2022-11-23T03:10:13.913Z,1012.8
2022-11-23T03:11:57.637Z,1013.8
2022-11-23T03:13:41.407Z,1011.6
2022-11-23T03:15:25.011Z,1009.9
2022-11-23T03:17:08.705Z,1009.9
2022-11-23T03:18:52.433Z,1007.1
2022-11-23T03:20:36.110Z,1005.4
2022-11-23T03:22:19.950Z,1007.3
2022-11-23T03:24:03.664Z,1008.1
2022-11-23T03:25:47.301Z,1009.3
2022-11-23T03:27:31.004Z,1008.4
2022-11-23T03:29:14.630Z,1005.3
2022-11-23T03:30:58.520Z,998.1
2022-11-23T03:32:42.187Z,994.5
2022-11-23T03:34:25.829Z,991
2022-11-23T03:36:09.506Z,985.7
2022-11-23T03:37:53.193Z,985.9
2022-11-23T03:39:36.987Z,989.7
2022-11-23T03:41:20.704Z,993
2022-11-23T03:43:04.357Z,988.8
2022-11-23T03:44:48.019Z,987.9
2022-11-23T03:46:31.762Z,988.4
2022-11-23T03:48:15.356Z,987.4
2022-11-23T03:49:59.116Z,989.5
2022-11-23T03:51:42.868Z,992.3
2022-11-23T03:53:26.489Z,991.4
2022-11-23T03:55:10.168Z,987.1
2022-11-23T03:56:53.953Z,981.5
2022-11-23T03:58:37.566Z,983.2
2022-11-23T04:00:21.367Z,992.3
2022-11-23T04:02:05.022Z,992.2
2022-11-23T04:03:48.698Z,991.8
2022-11-23T04:05:32.526Z,987.3
2022-11-23T04:07:16.182Z,987.2
2022-11-23T04:08:59.905Z,987.1
2022-11-23T04:10:43.656Z,986.1
2022-11-23T04:12:27.274Z,992
2022-11-23T04:14:11.011Z,990.5
2022-11-23T04:15:54.635Z,990.2
2022-11-23T04:17:38.397Z,987.6
2022-11-23T04:19:22.054Z,988
2022-11-23T04:21:05.710Z,986.5
2022-11-23T04:22:49.421Z,986.6
2022-11-23T04:24:33.172Z,983.3
2022-11-23T04:27:59.666Z,981.1
2022-11-23T04:29:43.467Z,981.2
2022-11-23T04:31:27.051Z,985.8
2022-11-23T04:33:10.743Z,981.1
2022-11-23T04:34:54.420Z,979.6
2022-11-23T04:36:38.178Z,976.9
2022-11-23T04:38:21.881Z,971.7
2022-11-23T04:40:05.526Z,967.5
2022-11-23T04:41:49.398Z,970.8
2022-11-23T04:43:32.932Z,974
2022-11-23T04:45:16.695Z,976
2022-11-23T04:47:00.311Z,976.3
2022-11-23T04:48:44.048Z,974.4
2022-11-23T04:50:27.806Z,975.6
2022-11-23T04:52:11.529Z,974.9
2022-11-23T04:53:55.146Z,972.7
2022-11-23T04:55:38.949Z,972.7
2022-11-23T04:57:22.526Z,970
2022-11-23T04:59:06.283Z,967.1
2022-11-23T05:00:49.925Z,964.1
2022-11-23T05:02:33.625Z,964
2022-11-23T05:04:17.333Z,963.9
2022-11-23T05:06:01.031Z,964.6
2022-11-23T05:07:44.739Z,961.2
2022-11-23T05:09:28.544Z,958.5
2022-11-23T05:11:12.178Z,954.8
2022-11-23T05:12:55.929Z,948.1
2022-11-23T05:14:39.543Z,948.4
2022-11-23T05:16:23.330Z,953.2
2022-11-23T05:18:06.953Z,952.6
2022-11-23T05:19:50.735Z,953.2
2022-11-23T05:21:34.496Z,952.4
2022-11-23T05:23:18.180Z,955.8
2022-11-23T05:25:01.867Z,956.9
2022-11-23T05:26:45.564Z,952.1
2022-11-23T05:28:29.231Z,954.7
2022-11-23T05:30:12.904Z,954.9
2022-11-23T05:31:56.633Z,954.2
2022-11-23T05:33:40.275Z,950.1
2022-11-23T05:35:23.988Z,949.9
2022-11-23T05:37:07.713Z,955.6
2022-11-23T05:38:51.400Z,956
2022-11-23T05:40:35.299Z,955.6
2022-11-23T05:42:18.847Z,955.5
2022-11-23T05:44:02.572Z,958.6
2022-11-23T05:45:46.238Z,1058.6
2022-11-23T05:47:30.009Z,1104.1
2022-11-23T05:49:13.605Z,997.2
2022-11-23T05:50:57.307Z,1005
2022-11-23T05:52:41.000Z,1152.1
2022-11-23T05:54:24.759Z,1150.1
2022-11-23T05:56:08.439Z,1127.5
2022-11-23T05:57:52.212Z,1106.5
2022-11-23T05:59:35.823Z,1078.4
2022-11-23T06:01:19.595Z,1077.2
2022-11-23T06:03:03.301Z,1077.4
2022-11-23T06:04:47.021Z,1077.8
2022-11-23T06:06:30.631Z,1077.4
2022-11-23T06:08:14.443Z,1075.9
2022-11-23T06:09:58.055Z,1076.8
2022-11-23T06:11:41.819Z,1079.5
2022-11-23T06:13:25.492Z,1081.5
2022-11-23T06:15:09.289Z,1080.3
2022-11-23T06:16:52.936Z,1081.2
2022-11-23T06:18:36.738Z,1084.3
2022-11-23T06:20:20.392Z,1084.6
2022-11-23T06:22:04.067Z,1086.3
2022-11-23T06:23:47.839Z,1092.4
2022-11-23T06:25:31.444Z,1095.5
2022-11-23T06:27:15.064Z,1098.5
2022-11-23T06:28:58.808Z,1096
2022-11-23T06:30:42.519Z,1094.6
2022-11-23T06:32:26.196Z,1091.9
2022-11-23T06:34:09.982Z,1082.4
2022-11-23T06:35:53.709Z,1075.1
2022-11-23T06:37:37.278Z,1077.1
2022-11-23T06:39:21.039Z,1075.1
2022-11-23T06:41:04.842Z,1074.3
2022-11-23T06:42:48.497Z,1075.5
2022-11-23T06:44:32.126Z,1075
2022-11-23T06:46:15.890Z,1070
2022-11-23T06:47:59.668Z,1066.4
2022-11-23T06:49:43.277Z,1063.7
2022-11-23T06:51:27.002Z,1062.2
2022-11-23T06:53:10.738Z,1061.2
2022-11-23T06:54:54.297Z,1064
2022-11-23T06:56:38.118Z,1068
2022-11-23T06:58:21.760Z,1068.5
2022-11-23T07:00:05.474Z,1069.9
2022-11-23T07:01:49.192Z,1066.6
2022-11-23T07:03:32.854Z,1065.7
2022-11-23T07:05:16.595Z,1058.3
2022-11-23T07:07:00.223Z,1053.8
2022-11-23T07:08:43.909Z,1052.9
2022-11-23T07:10:27.807Z,1050.8
2022-11-23T07:12:11.450Z,1052.5
2022-11-23T07:13:55.089Z,1050.7
2022-11-23T07:15:38.722Z,1047.7
2022-11-23T07:17:22.428Z,1038.8
2022-11-23T07:19:06.202Z,1042.5
2022-11-23T07:20:49.991Z,1052
2022-11-23T07:22:33.570Z,1048.2
2022-11-23T07:24:17.361Z,1046.8
2022-11-23T07:26:00.959Z,1044.9
2022-11-23T07:27:44.743Z,1044
2022-11-23T07:29:28.424Z,1045.2
2022-11-23T07:31:12.163Z,1047.9
2022-11-23T07:32:55.794Z,1049.3
2022-11-23T07:34:39.557Z,1048.6
2022-11-23T07:36:23.155Z,1047.6
2022-11-23T07:38:06.857Z,1049.5
2022-11-23T07:39:50.558Z,1045.2
2022-11-23T07:41:34.339Z,1040.1
2022-11-23T07:43:18.070Z,1039
2022-11-23T07:45:01.721Z,1038.3
2022-11-23T07:46:45.490Z,1034.4
2022-11-23T07:48:29.224Z,1032.3
2022-11-23T07:50:12.765Z,1027.7
2022-11-23T07:51:56.494Z,1030.9
2022-11-23T07:53:40.181Z,1032.4
2022-11-23T07:55:23.966Z,1026.2
2022-11-23T07:57:07.616Z,1024.3
2022-11-23T07:58:51.415Z,1024
2022-11-23T08:00:35.088Z,1023.4
2022-11-23T08:02:18.759Z,1024.8
2022-11-23T08:04:02.555Z,1028.4
2022-11-23T08:05:46.276Z,1028.1
2022-11-23T08:07:29.942Z,1026.2
2022-11-23T08:09:13.650Z,1021.5
2022-11-23T08:10:57.322Z,1021.5
2022-11-23T08:12:41.066Z,1023.7
2022-11-23T08:14:24.711Z,1021.6
2022-11-23T08:16:08.303Z,1022.8
2022-11-23T08:17:52.134Z,1023.2
2022-11-23T08:19:35.874Z,1021.1
2022-11-23T08:21:19.534Z,1022.4
2022-11-23T08:23:03.196Z,1024
2022-11-23T08:24:47.028Z,1025.3
2022-11-23T08:26:30.745Z,1024.6
2022-11-23T08:28:14.277Z,1023
2022-11-23T08:29:58.063Z,1021.2
2022-11-23T08:31:41.707Z,1022.7
2022-11-23T08:33:25.335Z,1020.9
2022-11-23T08:35:09.045Z,1017.4
2022-11-23T08:36:52.759Z,1007.7
2022-11-23T08:38:36.491Z,1011.2
2022-11-23T08:40:20.229Z,1015.8
2022-11-23T08:42:03.854Z,1022.7
2022-11-23T08:43:47.743Z,1024
2022-11-23T08:45:31.456Z,1023.5
2022-11-23T08:47:15.078Z,1020.9
2022-11-23T08:48:58.805Z,1025.2
2022-11-23T08:50:42.497Z,1027.5
2022-11-23T08:52:26.228Z,1027.1
2022-11-23T08:54:09.955Z,1023.4
2022-11-23T08:55:53.642Z,1019.1
2022-11-23T08:57:37.305Z,1016.9
2022-11-23T08:59:20.970Z,1018.1
2022-11-23T09:01:04.788Z,1019.6
2022-11-23T09:02:48.383Z,1020.6
2022-11-23T09:04:32.006Z,1021.1
2022-11-23T09:06:15.753Z,1023.5
2022-11-23T09:07:59.551Z,1022.5
2022-11-23T09:09:43.105Z,1026.7
2022-11-23T09:11:26.847Z,1030.5
2022-11-23T09:13:10.518Z,1029.2
2022-11-23T09:14:54.388Z,1025.6
2022-11-23T09:16:38.022Z,1026.3
2022-11-23T09:18:21.635Z,1026.5
2022-11-23T09:20:05.348Z,1026.8
2022-11-23T09:21:49.184Z,1030.2
2022-11-23T09:23:32.730Z,1033.6
2022-11-23T09:25:16.645Z,1033.9
2022-11-23T09:27:00.246Z,1035.3
2022-11-23T09:28:43.999Z,1033.3
2022-11-23T09:30:27.763Z,1031.6
2022-11-23T09:32:11.242Z,1029.2
2022-11-23T09:33:54.957Z,1029.9
2022-11-23T09:35:38.804Z,1027.1
2022-11-23T09:37:22.355Z,1024
2022-11-23T09:39:06.213Z,1027
2022-11-23T09:40:49.783Z,1025.7
2022-11-23T09:42:33.538Z,1021.1
2022-11-23T09:44:17.314Z,1018.8
2022-11-23T09:46:01.016Z,1017.2
2022-11-23T09:47:44.567Z,1019.6
2022-11-23T09:49:28.404Z,1022.3
2022-11-23T09:51:12.043Z,1019.9
2022-11-23T09:52:55.740Z,1016
2022-11-23T09:54:39.537Z,1015.8
2022-11-23T09:56:23.225Z,1012.3
2022-11-23T09:58:06.893Z,1013
2022-11-23T09:59:50.655Z,1009.7
2022-11-23T10:01:34.198Z,1010
2022-11-23T10:03:17.924Z,1007.9
2022-11-23T10:05:01.782Z,1006.4
2022-11-23T10:06:45.403Z,1005.3
2022-11-23T10:08:29.017Z,1003.9
2022-11-23T10:10:12.695Z,1004.2
2022-11-23T10:11:56.485Z,1003.1
2022-11-23T10:13:40.166Z,999.2
2022-11-23T10:15:23.890Z,1000.3
2022-11-23T10:17:07.520Z,998.3
2022-11-23T10:18:51.262Z,996.9
2022-11-23T10:20:34.935Z,997.7
2022-11-23T10:22:18.697Z,1000.5
2022-11-23T10:24:02.382Z,1001.2
2022-11-23T10:25:46.192Z,998.9
2022-11-23T10:27:29.796Z,996
2022-11-23T10:29:13.548Z,993.2
2022-11-23T10:30:57.230Z,990.6
2022-11-23T10:32:40.896Z,988
2022-11-23T10:34:24.674Z,989.8
2022-11-23T10:36:08.240Z,988.5
2022-11-23T10:37:52.038Z,989.7
2022-11-23T10:39:35.803Z,994.2
2022-11-23T10:41:19.460Z,998.2
2022-11-23T10:43:03.218Z,999.5
2022-11-23T10:44:46.793Z,996.9
2022-11-23T10:46:30.536Z,995
2022-11-23T10:48:14.271Z,991
2022-11-23T10:49:57.873Z,991.5
2022-11-23T10:51:41.636Z,988.3
2022-11-23T10:53:25.379Z,990.9
2022-11-23T10:55:09.148Z,995.6
2022-11-23T10:56:52.785Z,994.5
2022-11-23T10:58:36.449Z,992.6
2022-11-23T11:00:20.083Z,991.5
2022-11-23T11:02:03.824Z,1167.7
2022-11-23T11:03:47.483Z,1343.8
2022-11-23T11:05:31.219Z,1282.6
2022-11-23T11:07:14.908Z,1242.9
2022-11-23T11:08:58.602Z,1218.3
2022-11-23T11:10:42.297Z,1199.4
2022-11-23T11:12:26.040Z,1196.6
2022-11-23T11:14:09.740Z,1182.9
2022-11-23T11:15:53.391Z,1178.6
2022-11-23T11:17:37.105Z,1175.7
2022-11-23T11:19:20.794Z,1173.4
2022-11-23T11:21:04.508Z,1172.6
2022-11-23T11:22:48.305Z,1175.1
2022-11-23T11:24:31.976Z,1178.3
2022-11-23T11:26:15.683Z,1182.5
2022-11-23T11:27:59.322Z,1192.2
2022-11-23T11:29:43.155Z,1189.7
2022-11-23T11:31:26.715Z,1174.9
2022-11-23T11:33:10.537Z,1165.6
2022-11-23T11:34:54.149Z,1161.5
2022-11-23T11:36:37.941Z,1153.6
2022-11-23T11:38:21.527Z,1145.7
2022-11-23T11:40:05.310Z,1143.2
2022-11-23T11:41:48.935Z,1136.6
2022-11-23T11:43:32.761Z,1131
2022-11-23T11:45:16.332Z,1124.4
2022-11-23T11:47:00.050Z,1124.8
2022-11-23T11:48:43.809Z,1122.8
2022-11-23T11:50:27.480Z,1116.8
2022-11-23T11:52:11.222Z,1119.3
2022-11-23T11:53:54.853Z,1120.8
2022-11-23T11:55:38.557Z,1119.6
2022-11-23T11:57:22.254Z,1120.3
2022-11-23T11:59:05.960Z,1123.2
2022-11-23T12:00:49.767Z,1126.1
2022-11-23T12:02:33.355Z,1126.7
2022-11-23T12:04:17.065Z,1129.2
2022-11-23T12:06:00.762Z,1136.3
2022-11-23T12:07:44.542Z,1142.8
2022-11-23T12:09:28.186Z,1146.7
2022-11-23T12:11:11.937Z,1148.4
2022-11-23T12:12:55.576Z,1148.9
2022-11-23T12:14:39.286Z,1146.9
2022-11-23T12:16:23.065Z,1141.5
2022-11-23T12:18:06.680Z,1138.8
2022-11-23T12:19:50.394Z,1139.5
2022-11-23T12:21:34.079Z,1143.6
2022-11-23T12:23:17.967Z,1144.8
2022-11-23T12:25:01.658Z,1145.1
2022-11-23T12:26:45.356Z,1141.5
2022-11-23T12:28:29.050Z,1143.7
2022-11-23T12:30:12.609Z,1139.3
2022-11-23T12:31:56.457Z,1142.2
2022-11-23T12:33:40.192Z,1148.4
2022-11-23T12:35:23.870Z,1149.9
2022-11-23T12:37:07.578Z,1150.8
2022-11-23T12:38:51.110Z,1151.1
2022-11-23T12:40:34.814Z,1148.1
2022-11-23T12:42:18.581Z,1149.8
2022-11-23T12:44:02.269Z,1151
2022-11-23T12:45:45.920Z,1151.2
2022-11-23T12:47:29.670Z,1148.8
2022-11-23T12:49:13.347Z,1145.6
2022-11-23T12:50:57.178Z,1146.1
2022-11-23T12:52:40.731Z,1146.4
2022-11-23T12:54:24.578Z,1147.8
2022-11-23T12:56:08.149Z,1145.3
2022-11-23T12:57:51.958Z,1143.7
2022-11-23T12:59:35.686Z,1145.6
2022-11-23T13:01:19.432Z,1144.3
2022-11-23T13:03:03.117Z,1147.2
2022-11-23T13:04:46.651Z,1146.9
2022-11-23T13:06:30.468Z,1147
2022-11-23T13:08:14.138Z,1148.1
2022-11-23T13:09:57.911Z,1148.7
2022-11-23T13:11:41.617Z,1148.8
2022-11-23T13:13:25.351Z,1151.2
2022-11-23T13:15:09.063Z,1153.5
2022-11-23T13:16:52.732Z,1155.2
2022-11-23T13:18:36.280Z,1158.2
2022-11-23T13:20:19.990Z,1159.4
2022-11-23T13:22:03.817Z,1158.1
2022-11-23T13:23:47.622Z,1156.1
2022-11-23T13:25:31.399Z,1156.4
2022-11-23T13:27:15.046Z,1160.3
2022-11-23T13:28:58.705Z,1158.7
2022-11-23T13:30:42.201Z,1150.9
2022-11-23T13:32:25.984Z,1138.5
2022-11-23T13:34:09.770Z,1131.1
2022-11-23T13:35:53.453Z,1124.3
2022-11-23T13:37:37.152Z,1117.7
2022-11-23T13:39:20.932Z,1113
2022-11-23T13:41:04.661Z,1105.2
2022-11-23T13:42:48.265Z,1096.4
2022-11-23T13:44:31.854Z,1089.7
2022-11-23T13:46:15.565Z,1080.9
2022-11-23T13:47:59.426Z,1068.3
2022-11-23T13:49:43.123Z,1064.1
2022-11-23T13:51:26.821Z,1062.8
2022-11-23T13:53:10.483Z,1062.9
2022-11-23T13:54:54.042Z,1053.7
2022-11-23T13:56:37.926Z,1050.8
2022-11-23T13:58:21.567Z,1052
2022-11-23T14:00:05.135Z,1047.5
2022-11-23T14:01:48.987Z,1042.3
2022-11-23T14:03:32.658Z,1040.2
2022-11-23T14:05:16.319Z,1036.3
2022-11-23T14:07:00.173Z,1035.6
2022-11-23T14:08:43.838Z,1032.1
2022-11-23T14:10:27.566Z,1027.7
2022-11-23T14:12:11.258Z,1023.1
2022-11-23T14:13:54.939Z,1018.8
2022-11-23T14:15:38.620Z,1017.5
2022-11-23T14:17:22.171Z,1012.1
2022-11-23T14:19:06.058Z,1010.1
2022-11-23T14:20:49.770Z,1004.7
2022-11-23T14:22:33.491Z,1000.8
2022-11-23T14:24:17.160Z,998.9
2022-11-23T14:27:44.485Z,996.8
2022-11-23T14:29:28.289Z,997.7
2022-11-23T14:31:11.979Z,1000.3
2022-11-23T14:32:55.551Z,995.1
2022-11-23T14:34:39.386Z,997.4
2022-11-23T14:36:23.035Z,994.4
2022-11-23T14:38:06.777Z,993.4
2022-11-23T14:39:50.501Z,991.8
2022-11-23T14:41:34.178Z,992.2
2022-11-23T14:43:17.693Z,990.8
2022-11-23T14:45:01.401Z,988.2
2022-11-23T14:46:45.155Z,984.5
2022-11-23T14:48:28.912Z,986.3
2022-11-23T14:50:12.664Z,985.3
2022-11-23T14:51:56.386Z,977
2022-11-23T14:53:40.115Z,971.5
2022-11-23T14:55:23.771Z,968.9
2022-11-23T14:57:07.520Z,958.9
2022-11-23T14:58:51.161Z,950.4
2022-11-23T15:00:34.879Z,932.4
2022-11-23T15:02:18.561Z,928.5
2022-11-23T15:04:02.128Z,924.4
2022-11-23T15:05:45.999Z,919.7
2022-11-23T15:07:29.532Z,913.2
2022-11-23T15:09:13.232Z,908.7
2022-11-23T15:10:57.017Z,911.5
2022-11-23T15:12:40.647Z,911.4
2022-11-23T15:14:24.456Z,913.4
2022-11-23T15:16:08.060Z,914.2
2022-11-23T15:17:51.928Z,914.8
2022-11-23T15:19:35.709Z,913.4
2022-11-23T15:21:19.311Z,911.6
2022-11-23T15:23:02.854Z,910.1
2022-11-23T15:24:46.774Z,910.5
2022-11-23T15:26:30.263Z,909.6
2022-11-23T15:28:14.138Z,910.8
2022-11-23T15:29:57.782Z,906.4
2022-11-23T15:31:41.371Z,903.2
2022-11-23T15:33:25.237Z,906.3
2022-11-23T15:35:08.963Z,908.6
2022-11-23T15:36:52.710Z,907.9
2022-11-23T15:38:36.349Z,907.7
2022-11-23T15:40:20.189Z,906.8
2022-11-23T15:42:03.584Z,907.8
2022-11-23T15:43:47.281Z,904.3
2022-11-23T15:45:31.002Z,899.1
2022-11-23T15:47:14.850Z,894.8
2022-11-23T15:48:58.534Z,892.4
2022-11-23T15:50:42.240Z,893.7
2022-11-23T15:52:25.917Z,899.8
2022-11-23T15:54:09.648Z,891.6
2022-11-23T15:55:53.442Z,888
2022-11-23T15:57:37.064Z,886.7
2022-11-23T15:59:20.785Z,882.2
2022-11-23T16:01:04.443Z,876.8
2022-11-23T16:02:48.173Z,872.4
2022-11-23T16:04:31.884Z,870.9
2022-11-23T16:06:15.590Z,873.3
2022-11-23T16:07:59.319Z,868.3
2022-11-23T16:09:42.989Z,867.9
2022-11-23T16:11:26.684Z,870.6
2022-11-23T16:13:10.286Z,870.2
2022-11-23T16:14:53.960Z,871
2022-11-23T16:16:37.822Z,871.5
2022-11-23T16:18:21.505Z,873.5
2022-11-23T16:20:05.124Z,872.2
2022-11-23T16:21:48.937Z,873.5
2022-11-23T16:23:32.617Z,872.4
2022-11-23T16:25:16.312Z,870.2
2022-11-23T16:27:00.042Z,871.4
2022-11-23T16:28:43.745Z,867.7
2022-11-23T16:30:27.325Z,868.3
2022-11-23T16:32:11.108Z,866.3
2022-11-23T16:33:54.679Z,869.5
2022-11-23T16:35:38.540Z,871.5
2022-11-23T16:37:22.262Z,872.4
2022-11-23T16:39:06.049Z,869.7
2022-11-23T16:40:49.568Z,871.1
2022-11-23T16:42:33.347Z,872.9
2022-11-23T16:44:17.080Z,873.1
2022-11-23T16:46:00.749Z,872.8
2022-11-23T16:47:44.287Z,871.1
2022-11-23T16:49:28.123Z,868.1
2022-11-23T16:51:11.846Z,865.7
2022-11-23T16:52:55.604Z,867.7
2022-11-23T16:54:39.092Z,868.3
2022-11-23T16:56:22.918Z,866.8
2022-11-23T16:58:06.676Z,867.1
2022-11-23T16:59:50.387Z,862
2022-11-23T17:01:34.056Z,859.6
2022-11-23T17:03:17.831Z,862.7
2022-11-23T17:05:01.490Z,863.6
2022-11-23T17:06:45.153Z,863.5
2022-11-23T17:08:28.899Z,861.4
2022-11-23T17:10:12.590Z,872.6
2022-11-23T17:11:56.328Z,882.3
2022-11-23T17:13:40.003Z,882.2
2022-11-23T17:15:23.720Z,883.2
2022-11-23T17:17:07.420Z,891.5
2022-11-23T17:18:51.086Z,904.9
2022-11-23T17:20:34.778Z,915.5
2022-11-23T17:22:18.563Z,931.1
2022-11-23T17:24:02.040Z,931.8
2022-11-23T17:25:45.913Z,921.3
2022-11-23T17:27:29.623Z,919.8
2022-11-23T17:29:13.398Z,921.3
2022-11-23T17:30:57.005Z,919.6
2022-11-23T17:32:40.668Z,921.1
2022-11-23T17:34:24.434Z,921.3
2022-11-23T17:36:08.087Z,925.4
2022-11-23T17:37:51.821Z,927.3
2022-11-23T17:39:35.559Z,929.6
2022-11-23T17:41:19.244Z,930
2022-11-23T17:43:02.803Z,930.6
2022-11-23T17:44:46.471Z,930.6
2022-11-23T17:46:30.215Z,932.4
2022-11-23T17:48:14.030Z,931.8
2022-11-23T17:49:57.711Z,927.5
2022-11-23T17:51:41.283Z,925.6
2022-11-23T17:53:25.144Z,929.4
2022-11-23T17:55:08.936Z,930.7
2022-11-23T17:56:52.598Z,927.7
2022-11-23T17:58:36.256Z,925.2
2022-11-23T18:00:19.977Z,924.4
2022-11-23T18:02:03.603Z,920.9
2022-11-23T18:03:47.231Z,920.6
2022-11-23T18:05:30.980Z,919.9
2022-11-23T18:07:14.730Z,920.9
2022-11-23T18:08:58.428Z,924.4
2022-11-23T18:10:42.260Z,926.8
2022-11-23T18:12:25.846Z,930
2022-11-23T18:14:09.601Z,929
2022-11-23T18:15:53.254Z,927.9
2022-11-23T18:17:36.974Z,930.1
2022-11-23T18:19:20.681Z,937.6
2022-11-23T18:21:04.352Z,1009.3
2022-11-23T18:22:48.075Z,1170.3
2022-11-23T18:24:31.733Z,1181.1
2022-11-23T18:26:15.456Z,1182
2022-11-23T18:27:59.082Z,1180.1
2022-11-23T18:29:42.832Z,1180.4
2022-11-23T18:31:26.546Z,1188
2022-11-23T18:33:10.150Z,1190.6
2022-11-23T18:34:53.887Z,1192.4
2022-11-23T18:36:37.788Z,1190.2
2022-11-23T18:38:21.315Z,1185
2022-11-23T18:40:04.953Z,1186.3
2022-11-23T18:41:48.757Z,1195
2022-11-23T18:43:32.387Z,1208
2022-11-23T18:45:16.072Z,1208
2022-11-23T18:46:59.839Z,1209.1
2022-11-23T18:48:43.530Z,1210.1
2022-11-23T18:50:27.170Z,1210.6
2022-11-23T18:52:10.967Z,1195.3
2022-11-23T18:53:54.641Z,1256.7
2022-11-23T18:55:38.283Z,1255.6
2022-11-23T18:57:22.078Z,1261.9
2022-11-23T18:59:05.784Z,1286.8
2022-11-23T19:00:49.485Z,1285.8
2022-11-23T19:02:33.077Z,1286.2
2022-11-23T19:04:16.823Z,1302.3
2022-11-23T19:06:00.515Z,1321.2
2022-11-23T19:07:44.313Z,1328.4
2022-11-23T19:09:28.035Z,1309.3
2022-11-23T19:11:11.594Z,1306.1
2022-11-23T19:12:55.285Z,1312.5
2022-11-23T19:14:39.123Z,1334.8
2022-11-23T19:16:22.692Z,1336.8
2022-11-23T19:18:06.402Z,1333.4
2022-11-23T19:19:50.237Z,1332.9
2022-11-23T19:21:33.861Z,1330.6
2022-11-23T19:23:17.515Z,1333.1
2022-11-23T19:25:01.278Z,1334.1
2022-11-23T19:26:44.909Z,1341.2
2022-11-23T19:28:28.634Z,1345.3
2022-11-23T19:30:12.389Z,1348.1
2022-11-23T19:31:56.037Z,1347.7
2022-11-23T19:33:39.730Z,1338.8
2022-11-23T19:35:23.426Z,1327.3
2022-11-23T19:37:07.139Z,1321.3
2022-11-23T19:38:50.914Z,1319.1
2022-11-23T19:40:34.592Z,1325
2022-11-23T19:42:18.267Z,1324.5
2022-11-23T19:44:02.001Z,1328.1
2022-11-23T19:45:45.673Z,1327.6
2022-11-23T19:47:29.427Z,1327.9
2022-11-23T19:49:13.055Z,1329.6
2022-11-23T19:50:56.749Z,1331.8
2022-11-23T19:52:40.455Z,1336.4
2022-11-23T19:54:24.316Z,1339.8
2022-11-23T19:56:07.926Z,1342.3
2022-11-23T19:57:51.651Z,1350.7
2022-11-23T19:59:35.438Z,1342.5
2022-11-23T20:01:18.981Z,1338.3
2022-11-23T20:03:02.692Z,1338.4
2022-11-23T20:04:46.374Z,1344.1
2022-11-23T20:06:30.222Z,1349.3
2022-11-23T20:08:13.870Z,1359.3
2022-11-23T20:09:57.560Z,1376.4
2022-11-23T20:11:41.369Z,1424.1
2022-11-23T20:13:24.955Z,1429.3
2022-11-23T20:15:08.588Z,1438.6
2022-11-23T20:16:52.287Z,1453.3
2022-11-23T20:18:35.985Z,1461.8
2022-11-23T20:20:19.709Z,1460.2
2022-11-23T20:22:03.473Z,1464.1
2022-11-23T20:25:30.803Z,1491.3
2022-11-23T20:27:14.642Z,1488.9
2022-11-23T20:28:58.304Z,1492
2022-11-23T20:30:41.911Z,1489
2022-11-23T20:32:25.701Z,1493.7
2022-11-23T20:34:09.317Z,1494.3
2022-11-23T20:35:53.089Z,1498.1
2022-11-23T20:37:36.856Z,1495.3
2022-11-23T20:39:20.529Z,1491.6
2022-11-23T20:41:04.120Z,1483.5
2022-11-23T20:42:47.832Z,1488.2
2022-11-23T20:44:31.701Z,1492.5
2022-11-23T20:47:58.936Z,1510.6
2022-11-23T20:49:42.737Z,1512.4
2022-11-23T20:51:26.337Z,1518.6
2022-11-23T20:53:10.042Z,1528.2
2022-11-23T20:54:53.812Z,1541.1
2022-11-23T20:56:37.496Z,1550.8
2022-11-23T20:58:21.150Z,1561
2022-11-23T21:00:04.860Z,1554.8
2022-11-23T21:01:48.577Z,1555.4
2022-11-23T21:03:32.354Z,1561.6
2022-11-23T21:05:15.963Z,1565.6
2022-11-23T21:06:59.671Z,1575
2022-11-23T21:08:43.375Z,1579.7
2022-11-23T21:10:27.065Z,1578.9
2022-11-23T21:12:10.854Z,1580.3
2022-11-23T21:13:54.539Z,1582.4
2022-11-23T21:15:38.330Z,1580.9
2022-11-23T21:17:22.036Z,1579.9
2022-11-23T21:19:05.613Z,1586.3
2022-11-23T21:20:49.280Z,1593.4
2022-11-23T21:22:33.157Z,1624.2
2022-11-23T21:24:16.863Z,1634
2022-11-23T21:26:00.565Z,1630.3
2022-11-23T21:27:44.285Z,1624.3
2022-11-23T21:29:27.943Z,1616.4
2022-11-23T21:31:11.675Z,1619.1
2022-11-23T21:32:55.374Z,1617.6
2022-11-23T21:34:39.078Z,1613.1
2022-11-23T21:36:22.818Z,1607
2022-11-23T21:38:06.465Z,1601.1
2022-11-23T21:39:50.127Z,1596.5
2022-11-23T21:41:33.837Z,1596.5
2022-11-23T21:43:17.633Z,1597.5
2022-11-23T21:45:01.339Z,1597
2022-11-23T21:46:45.011Z,1597.3
2022-11-23T21:48:28.627Z,1586
2022-11-23T21:50:12.233Z,1576.6
2022-11-23T21:51:56.068Z,1569
2022-11-23T21:53:39.847Z,1563.8
2022-11-23T21:55:23.549Z,1561.4
2022-11-23T21:57:07.195Z,1563.3
2022-11-23T21:58:50.875Z,1563.6
2022-11-23T22:00:34.624Z,1566.6
2022-11-23T22:02:18.426Z,1567.8